Time;durP1;ratioP1;P1;durP2;ratioP2;P2;SDS_P1;SDS_P2;PMS_P1;PMS_P2;Temp;Humidity;BMP_temperature;BMP_pressure;BME280_temperature;BME280_humidity;BME280_pressure;Samples;Min_cycle;Max_cycle;Signal;HPM_P1;HPM_P2
2023/03/07 00:01:05;;;;;;;24.80;10.32;;;2.70;99.90;;;;;;5082234;28;20526;-77
2023/03/07 00:03:32;;;;;;;19.55;8.75;;;2.80;99.90;;;;;;5076147;28;20040;-78
2023/03/07 00:06:04;;;;;;;21.10;9.63;;;2.80;99.90;;;;;;5102949;28;20035;-77
2023/03/07 00:08:31;;;;;;;20.92;9.43;;;2.80;99.90;;;;;;5072793;28;20489;-77
2023/03/07 00:11:03;;;;;;;17.88;8.55;;;2.80;99.90;;;;;;5091263;28;20123;-77
2023/03/07 00:13:31;;;;;;;18.98;8.05;;;2.70;99.90;;;;;;5091690;28;20044;-77
2023/03/07 00:16:06;;;;;;;13.95;7.03;;;2.80;99.90;;;;;;5074625;28;20044;-77
2023/03/07 00:18:33;;;;;;;15.98;7.70;;;2.80;99.90;;;;;;5091168;28;20040;-77
2023/03/07 00:21:04;;;;;;;18.73;8.07;;;2.80;99.90;;;;;;5076955;28;20115;-78
2023/03/07 00:23:33;;;;;;;16.90;7.32;;;2.90;99.90;;;;;;5100868;28;20115;-78
2023/03/07 00:26:12;;;;;;;14.50;7.15;;;3.00;99.90;;;;;;5080821;28;20044;-77
2023/03/07 00:28:39;;;;;;;15.63;7.00;;;2.80;99.90;;;;;;5082301;28;20041;-77
2023/03/07 00:31:09;;;;;;;15.15;6.43;;;2.80;99.90;;;;;;5074315;28;20098;-78
2023/03/07 00:33:36;;;;;;;15.68;6.75;;;3.10;99.90;;;;;;5095845;28;20032;-78
2023/03/07 00:36:12;;;;;;;16.45;7.20;;;2.90;99.90;;;;;;5094912;28;20040;-77
2023/03/07 00:38:40;;;;;;;12.18;6.03;;;2.90;99.90;;;;;;5073852;28;20102;-77
2023/03/07 00:41:13;;;;;;;13.68;5.65;;;2.90;99.90;;;;;;5090428;28;20051;-77
2023/03/07 00:43:40;;;;;;;12.23;5.50;;;2.90;99.90;;;;;;5090955;28;20450;-78
2023/03/07 00:46:07;;;;;;;10.27;4.70;;;2.90;99.90;;;;;;5073967;28;20044;-77
2023/03/07 00:48:37;;;;;;;11.68;4.82;;;3.20;99.90;;;;;;5093811;28;20034;-77
2023/03/07 00:51:06;;;;;;;11.20;4.82;;;2.90;99.90;;;;;;5094143;28;20043;-77
2023/03/07 00:53:33;;;;;;;8.88;4.32;;;2.90;99.90;;;;;;5094045;28;20134;-77
2023/03/07 00:56:01;;;;;;;8.10;3.88;;;2.90;99.90;;;;;;5073318;28;20044;-77
2023/03/07 00:58:30;;;;;;;10.63;3.83;;;2.90;99.90;;;;;;5098555;28;20043;-78
2023/03/07 01:00:58;;;;;;;7.20;3.03;;;2.90;99.90;;;;;;5102625;28;20040;-79
2023/03/07 01:03:25;;;;;;;9.27;3.03;;;2.90;99.90;;;;;;5082876;28;20092;-78
2023/03/07 01:05:53;;;;;;;8.05;2.70;;;2.90;99.90;;;;;;5080732;28;20044;-77
2023/03/07 01:08:21;;;;;;;8.52;2.75;;;2.80;99.90;;;;;;5085175;28;20041;-77
2023/03/07 01:10:48;;;;;;;7.60;2.35;;;2.80;99.90;;;;;;5076094;28;20165;-77
2023/03/07 01:13:16;;;;;;;7.10;2.30;;;3.10;99.90;;;;;;5064763;28;20501;-77
2023/03/07 01:15:43;;;;;;;8.98;2.67;;;2.70;99.90;;;;;;5073571;28;20044;-77
2023/03/07 01:18:10;;;;;;;7.47;3.03;;;2.70;99.90;;;;;;5074903;28;20412;-77
2023/03/07 01:20:37;;;;;;;9.48;2.97;;;2.70;99.90;;;;;;5078996;28;20122;-77
2023/03/07 01:23:05;;;;;;;6.40;2.28;;;2.70;99.90;;;;;;5092905;28;20097;-77
2023/03/07 01:25:37;;;;;;;8.48;2.38;;;2.90;99.90;;;;;;5090980;28;20562;-77
2023/03/07 01:28:04;;;;;;;8.77;2.50;;;2.80;99.90;;;;;;5090291;28;20048;-77
2023/03/07 01:30:31;;;;;;;7.50;2.20;;;2.80;99.90;;;;;;5092678;28;20119;-77
2023/03/07 01:32:59;;;;;;;6.50;2.10;;;3.00;99.90;;;;;;5092988;28;20064;-77
2023/03/07 01:35:26;;;;;;;7.00;1.90;;;3.30;99.90;;;;;;5077228;28;20032;-77
2023/03/07 01:37:53;;;;;;;8.68;1.73;;;2.90;99.90;;;;;;5109133;28;20101;-78
2023/03/07 01:40:22;;;;;;;3.92;1.10;;;2.90;99.90;;;;;;5075545;28;20481;-78
2023/03/07 01:42:49;;;;;;;11.02;1.58;;;2.90;99.90;;;;;;5085225;28;20126;-78
2023/03/07 01:45:33;;;;;;;5.80;1.40;;;2.80;99.90;;;;;;5076359;28;20127;-77
2023/03/07 01:48:00;;;;;;;6.43;1.25;;;2.90;99.90;;;;;;5109207;28;20044;-78
2023/03/07 01:50:27;;;;;;;6.15;1.45;;;2.90;99.90;;;;;;5075996;28;20036;-77
2023/03/07 01:52:59;;;;;;;8.13;1.42;;;3.70;99.90;;;;;;5107773;28;20063;-78
2023/03/07 01:55:32;;;;;;;6.45;1.42;;;2.80;99.90;;;;;;5075065;28;20098;-78
2023/03/07 01:58:07;;;;;;;4.43;1.02;;;3.20;99.90;;;;;;5092422;28;20044;-77
2023/03/07 02:00:37;;;;;;;4.28;1.30;;;3.40;99.90;;;;;;5091036;28;20039;-77
2023/03/07 02:03:10;;;;;;;7.05;1.00;;;2.90;99.90;;;;;;5061395;28;20038;-77
2023/03/07 02:05:48;;;;;;;15.50;1.17;;;2.80;99.90;;;;;;5109388;28;20040;-77
2023/03/07 02:08:17;;;;;;;5.20;1.05;;;2.90;99.90;;;;;;5093793;28;20044;-78
2023/03/07 02:10:44;;;;;;;7.30;1.30;;;3.20;99.90;;;;;;5073289;28;20173;-77
2023/03/07 02:13:11;;;;;;;9.15;1.30;;;3.60;99.90;;;;;;5106021;28;20085;-77
2023/03/07 02:15:38;;;;;;;10.85;1.40;;;3.00;99.90;;;;;;5056059;28;20124;-77
2023/03/07 02:18:06;;;;;;;10.13;1.50;;;3.30;99.90;;;;;;5072210;28;20048;-77
2023/03/07 02:20:38;;;;;;;7.25;1.48;;;2.80;99.90;;;;;;5087132;28;20028;-77
2023/03/07 02:23:12;;;;;;;6.40;1.13;;;2.80;99.90;;;;;;5072844;28;20488;-78
2023/03/07 02:26:19;;;;;;;10.88;1.20;;;2.90;99.90;;;;;;5084937;28;20484;-77
2023/03/07 02:28:47;;;;;;;4.72;1.20;;;2.70;99.90;;;;;;5027675;28;20057;-77
2023/03/07 02:31:14;;;;;;;9.55;0.90;;;2.70;99.90;;;;;;5061737;28;20508;-78
2023/03/07 02:33:40;;;;;;;4.35;0.98;;;2.60;99.90;;;;;;5059984;28;20064;-77
2023/03/07 02:36:11;;;;;;;5.40;1.20;;;3.00;99.90;;;;;;5060198;28;20131;-77
2023/03/07 02:38:40;;;;;;;6.55;1.20;;;2.60;99.90;;;;;;5090854;28;20384;-77
2023/03/07 02:41:10;;;;;;;8.35;1.33;;;3.00;99.90;;;;;;5074127;28;20531;-77
2023/03/07 02:43:37;;;;;;;8.05;1.85;;;2.90;99.90;;;;;;5072009;28;20106;-77
2023/03/07 02:46:04;;;;;;;7.18;1.27;;;2.60;99.90;;;;;;5055764;28;20444;-77
2023/03/07 02:48:30;;;;;;;8.38;1.00;;;2.50;99.90;;;;;;5072372;28;20044;-77
2023/03/07 02:50:57;;;;;;;10.75;1.10;;;2.50;99.90;;;;;;5055986;28;20043;-77
2023/03/07 02:53:25;;;;;;;5.03;1.58;;;2.50;99.90;;;;;;5088904;28;20049;-77
2023/03/07 02:55:52;;;;;;;8.95;1.67;;;2.50;99.90;;;;;;5071930;28;20090;-78
2023/03/07 02:58:18;;;;;;;5.78;1.17;;;2.40;99.90;;;;;;5063519;28;20036;-77
2023/03/07 03:00:45;;;;;;;5.15;0.93;;;2.90;99.90;;;;;;5090108;28;20038;-78
2023/03/07 03:03:12;;;;;;;8.73;1.15;;;2.40;99.90;;;;;;5093650;28;20797;-78
2023/03/07 03:05:39;;;;;;;6.63;1.58;;;2.40;99.90;;;;;;5096020;28;20085;-78
2023/03/07 03:08:06;;;;;;;17.63;1.92;;;2.40;99.90;;;;;;5095895;28;20040;-77
2023/03/07 03:10:32;;;;;;;8.57;1.20;;;2.40;99.90;;;;;;5076609;28;20548;-77
2023/03/07 03:12:59;;;;;;;8.52;1.63;;;2.80;99.90;;;;;;5112261;28;20040;-78
2023/03/07 03:15:26;;;;;;;14.07;1.92;;;2.40;99.90;;;;;;5095813;28;20504;-77
2023/03/07 03:17:53;;;;;;;10.15;1.73;;;2.40;99.90;;;;;;5088628;28;20451;-77
2023/03/07 03:20:20;;;;;;;8.10;1.17;;;2.40;99.90;;;;;;5112267;28;20385;-77
2023/03/07 03:22:47;;;;;;;8.20;1.20;;;2.40;99.90;;;;;;5095802;28;20047;-77
2023/03/07 03:25:14;;;;;;;7.28;1.38;;;2.40;99.90;;;;;;5088970;28;20072;-77
2023/03/07 03:27:40;;;;;;;7.38;1.23;;;2.60;99.90;;;;;;5075468;28;20098;-77
2023/03/07 03:30:11;;;;;;;13.35;1.50;;;3.00;99.90;;;;;;5058837;28;20078;-77
2023/03/07 03:32:39;;;;;;;13.55;1.45;;;2.30;99.90;;;;;;5072923;28;20497;-77
2023/03/07 03:35:06;;;;;;;13.75;2.30;;;2.40;99.90;;;;;;5103987;28;20036;-79
2023/03/07 03:37:33;;;;;;;8.88;1.42;;;2.30;99.90;;;;;;5095298;28;20431;-78
2023/03/07 03:40:00;;;;;;;8.35;1.48;;;2.30;99.90;;;;;;5075801;28;20082;-77
2023/03/07 03:42:27;;;;;;;10.50;1.35;;;2.40;99.90;;;;;;5064961;28;20106;-77
2023/03/07 03:44:53;;;;;;;5.03;1.23;;;2.60;99.90;;;;;;5095336;28;20381;-77
2023/03/07 03:47:20;;;;;;;10.63;1.45;;;2.50;99.90;;;;;;5078196;28;20044;-77
2023/03/07 03:49:47;;;;;;;7.32;1.30;;;2.30;99.90;;;;;;5095649;28;20043;-77
2023/03/07 03:52:13;;;;;;;5.22;1.15;;;2.20;99.90;;;;;;5064658;28;20105;-77
2023/03/07 03:54:40;;;;;;;12.05;1.73;;;2.50;99.90;;;;;;5045840;28;20043;-77
2023/03/07 03:57:07;;;;;;;5.65;1.20;;;2.30;99.90;;;;;;5074849;28;20040;-77
2023/03/07 03:59:34;;;;;;;5.85;0.85;;;2.30;99.90;;;;;;5057981;28;20037;-77
2023/03/07 04:02:00;;;;;;;13.10;1.30;;;2.50;99.90;;;;;;5066717;28;20143;-77
2023/03/07 04:04:27;;;;;;;9.18;1.48;;;2.10;99.90;;;;;;5074652;28;20044;-77
2023/03/07 04:06:54;;;;;;;8.77;1.60;;;2.10;99.90;;;;;;5082517;28;20089;-77
2023/03/07 04:09:20;;;;;;;4.65;1.13;;;2.20;99.90;;;;;;5074527;28;20044;-77
2023/03/07 04:11:47;;;;;;;7.85;1.73;;;2.20;99.90;;;;;;5058206;28;20182;-77
2023/03/07 04:14:14;;;;;;;8.95;1.13;;;2.50;99.90;;;;;;5057589;28;20044;-78
2023/03/07 04:16:40;;;;;;;8.43;1.55;;;2.00;99.90;;;;;;5081707;28;20036;-77
2023/03/07 04:19:11;;;;;;;12.55;1.75;;;2.10;99.90;;;;;;5058792;28;20036;-78
2023/03/07 04:21:39;;;;;;;8.80;1.10;;;2.10;99.90;;;;;;5094519;28;20129;-77
2023/03/07 04:24:07;;;;;;;15.15;1.33;;;2.10;99.90;;;;;;5093805;28;20508;-77
2023/03/07 04:26:35;;;;;;;14.95;1.60;;;2.10;99.90;;;;;;5074248;28;20048;-77
2023/03/07 04:29:03;;;;;;;11.13;1.40;;;2.10;99.90;;;;;;5091172;28;20036;-77
2023/03/07 04:31:30;;;;;;;8.93;1.05;;;2.10;99.90;;;;;;5062812;28;20031;-77
2023/03/07 04:33:57;;;;;;;5.57;0.90;;;2.10;99.90;;;;;;5091053;28;20123;-77
2023/03/07 04:36:24;;;;;;;12.77;1.40;;;2.10;99.90;;;;;;5067709;28;20119;-77
2023/03/07 04:38:51;;;;;;;5.72;1.08;;;2.10;99.90;;;;;;5091112;28;20412;-77
2023/03/07 04:41:20;;;;;;;5.38;0.90;;;2.10;99.90;;;;;;5104321;28;20130;-77
2023/03/07 04:43:47;;;;;;;10.65;1.50;;;2.90;99.90;;;;;;5090475;28;20094;-78
2023/03/07 04:46:15;;;;;;;6.20;1.00;;;2.00;99.90;;;;;;5093824;28;20039;-78
2023/03/07 04:48:43;;;;;;;7.03;1.00;;;2.10;99.90;;;;;;5094190;28;20035;-77
2023/03/07 04:51:09;;;;;;;7.03;1.23;;;2.00;99.90;;;;;;5094001;28;20047;-77
2023/03/07 04:53:36;;;;;;;8.40;1.05;;;2.00;99.90;;;;;;5093728;28;20408;-77
2023/03/07 04:56:07;;;;;;;12.40;1.77;;;2.00;99.90;;;;;;5077899;28;20079;-77
2023/03/07 04:58:34;;;;;;;8.07;1.20;;;2.00;99.90;;;;;;5110615;28;20749;-77
2023/03/07 05:01:02;;;;;;;7.95;1.27;;;2.30;99.90;;;;;;5060814;28;20041;-77
2023/03/07 05:03:29;;;;;;;7.63;1.58;;;2.10;99.90;;;;;;5130540;28;20079;-77
2023/03/07 05:06:04;;;;;;;10.85;1.33;;;2.00;99.90;;;;;;5082018;28;20095;-77
2023/03/07 05:08:31;;;;;;;13.27;1.60;;;2.00;99.90;;;;;;5084690;28;20507;-77
2023/03/07 05:10:58;;;;;;;6.55;1.25;;;2.10;99.90;;;;;;5090414;28;20029;-77
2023/03/07 05:13:25;;;;;;;6.93;1.33;;;2.00;99.90;;;;;;5073174;28;20041;-77
2023/03/07 05:15:56;;;;;;;7.65;1.13;;;2.50;99.90;;;;;;5058377;28;20040;-77
2023/03/07 05:18:23;;;;;;;7.68;1.88;;;1.90;99.90;;;;;;5078134;28;20039;-79
2023/03/07 05:20:50;;;;;;;9.68;1.20;;;2.80;99.90;;;;;;5093664;28;20093;-77
2023/03/07 05:23:18;;;;;;;11.40;1.73;;;2.00;99.90;;;;;;5093379;28;20407;-77
2023/03/07 05:25:48;;;;;;;6.70;1.45;;;2.00;99.90;;;;;;5107202;28;20087;-77
2023/03/07 05:28:16;;;;;;;4.57;1.20;;;2.00;99.90;;;;;;5057527;28;20455;-77
2023/03/07 05:30:46;;;;;;;9.93;1.30;;;2.00;99.90;;;;;;5058204;28;20131;-77
2023/03/07 05:33:13;;;;;;;8.10;1.67;;;1.90;99.90;;;;;;5076071;28;20032;-77
2023/03/07 05:35:40;;;;;;;5.65;0.90;;;2.10;99.90;;;;;;5092890;28;20051;-77
2023/03/07 05:38:07;;;;;;;6.05;1.30;;;2.40;99.90;;;;;;5092488;28;20040;-77
2023/03/07 05:40:34;;;;;;;4.18;1.10;;;2.10;99.90;;;;;;5109139;28;20044;-78
2023/03/07 05:43:01;;;;;;;4.95;1.20;;;2.10;99.90;;;;;;5073242;28;20039;-77
2023/03/07 05:45:28;;;;;;;9.13;1.27;;;2.10;99.90;;;;;;5075022;28;20042;-77
2023/03/07 05:47:54;;;;;;;8.18;1.30;;;2.10;99.90;;;;;;5064546;28;20042;-77
2023/03/07 05:50:21;;;;;;;5.82;1.60;;;2.10;99.90;;;;;;5068280;28;20094;-77
2023/03/07 05:52:48;;;;;;;8.40;1.10;;;2.10;99.90;;;;;;5054058;28;20036;-77
2023/03/07 05:55:15;;;;;;;7.22;1.35;;;2.10;99.90;;;;;;5088587;28;20073;-77
2023/03/07 05:57:41;;;;;;;8.98;1.15;;;2.10;99.90;;;;;;5080374;28;20032;-77
2023/03/07 06:00:10;;;;;;;9.02;1.33;;;2.10;99.90;;;;;;5068333;28;20047;-77
2023/03/07 06:02:36;;;;;;;10.07;1.20;;;2.00;99.90;;;;;;5071817;28;20048;-77
2023/03/07 06:05:03;;;;;;;7.43;1.00;;;2.10;99.90;;;;;;5102567;28;20047;-77
2023/03/07 06:07:30;;;;;;;0.88;0.28;;;2.00;99.90;;;;;;5082680;28;20043;-77
2023/03/07 06:09:57;;;;;;;3.10;0.85;;;2.00;99.90;;;;;;5071882;28;20040;-77
2023/03/07 06:12:23;;;;;;;0.30;0.30;;;2.10;99.90;;;;;;5056115;28;20041;-77
2023/03/07 06:14:50;;;;;;;0.90;0.30;;;2.30;99.90;;;;;;5055465;28;20041;-78
2023/03/07 06:17:17;;;;;;;7.00;0.73;;;2.50;99.90;;;;;;5056097;28;20076;-77
2023/03/07 06:19:43;;;;;;;3.97;0.55;;;2.10;99.90;;;;;;5063304;28;20102;-77
2023/03/07 06:22:10;;;;;;;2.40;1.17;;;2.40;99.90;;;;;;5071308;28;20075;-77
2023/03/07 06:24:37;;;;;;;3.30;1.02;;;2.10;99.90;;;;;;5071831;28;20493;-77
2023/03/07 06:27:04;;;;;;;1.67;1.27;;;2.10;99.90;;;;;;5075226;28;20404;-77
2023/03/07 06:29:30;;;;;;;1.00;0.60;;;2.10;99.90;;;;;;5075627;28;20047;-77
2023/03/07 06:31:58;;;;;;;1.35;0.50;;;2.90;99.90;;;;;;5079252;28;20481;-77
2023/03/07 06:34:25;;;;;;;1.10;0.50;;;2.40;99.90;;;;;;5085237;28;20043;-77
2023/03/07 06:36:51;;;;;;;6.70;0.73;;;2.20;99.90;;;;;;5091698;28;20396;-76
2023/03/07 06:39:20;;;;;;;0.38;0.28;;;2.30;99.90;;;;;;5075539;28;20043;-77
2023/03/07 06:41:47;;;;;;;0.60;0.40;;;2.30;99.90;;;;;;5065980;28;20423;-77
2023/03/07 06:44:15;;;;;;;0.30;0.30;;;2.10;99.90;;;;;;5084532;28;20044;-77
2023/03/07 06:46:43;;;;;;;0.22;0.22;;;2.10;99.90;;;;;;5093543;28;20169;-77
2023/03/07 06:49:10;;;;;;;0.43;0.40;;;2.10;99.90;;;;;;5071286;28;20035;-77
2023/03/07 06:51:37;;;;;;;2.65;0.43;;;2.70;99.90;;;;;;5064577;28;20119;-77
2023/03/07 06:54:03;;;;;;;0.20;0.20;;;2.00;99.90;;;;;;5063930;28;20045;-77
2023/03/07 06:56:30;;;;;;;4.85;0.40;;;2.40;99.90;;;;;;5074851;28;20124;-77
2023/03/07 06:58:57;;;;;;;5.05;0.30;;;2.00;99.90;;;;;;5099559;28;20071;-77
2023/03/07 07:01:23;;;;;;;4.80;0.60;;;2.50;99.90;;;;;;5080051;28;20127;-77
2023/03/07 07:03:50;;;;;;;3.60;0.45;;;2.00;99.90;;;;;;5077560;28;20047;-77
2023/03/07 07:06:17;;;;;;;0.38;0.30;;;2.70;99.90;;;;;;5068924;28;20101;-77
2023/03/07 07:08:44;;;;;;;4.75;0.38;;;2.10;99.90;;;;;;5064282;28;20040;-77
2023/03/07 07:11:11;;;;;;;0.68;0.35;;;2.60;99.90;;;;;;5085174;28;20041;-76
2023/03/07 07:13:37;;;;;;;7.03;0.50;;;2.40;99.90;;;;;;5083588;28;20588;-77
2023/03/07 07:16:08;;;;;;;0.57;0.38;;;2.90;99.90;;;;;;5088784;28;20036;-77
2023/03/07 07:18:35;;;;;;;3.72;0.45;;;2.10;99.90;;;;;;5069728;28;20041;-77
2023/03/07 07:21:02;;;;;;;1.35;0.57;;;2.10;99.90;;;;;;5067986;28;20051;-76
2023/03/07 07:23:29;;;;;;;1.88;0.90;;;2.20;99.90;;;;;;5076644;28;20047;-77
2023/03/07 07:25:56;;;;;;;2.10;0.50;;;2.20;99.90;;;;;;5081159;28;20078;-77
2023/03/07 07:28:23;;;;;;;0.77;0.52;;;2.30;99.90;;;;;;5085536;28;20040;-77
2023/03/07 07:30:49;;;;;;;2.53;1.17;;;2.30;99.90;;;;;;5099658;28;20036;-77
2023/03/07 07:33:16;;;;;;;2.00;0.35;;;2.30;99.90;;;;;;5080689;28;20173;-76
2023/03/07 07:35:43;;;;;;;0.30;0.30;;;2.40;99.90;;;;;;5066204;28;20630;-77
2023/03/07 07:38:11;;;;;;;0.88;0.52;;;2.40;99.90;;;;;;5056021;28;20382;-77
2023/03/07 07:40:38;;;;;;;1.20;0.40;;;2.50;99.90;;;;;;5066611;28;20036;-77
2023/03/07 07:43:05;;;;;;;4.75;0.85;;;2.50;99.90;;;;;;5051595;28;20041;-76
2023/03/07 07:45:31;;;;;;;3.33;1.15;;;2.60;99.90;;;;;;5062187;28;20064;-76
2023/03/07 07:47:58;;;;;;;3.35;0.80;;;2.90;99.90;;;;;;5072867;28;20111;-76
2023/03/07 07:50:25;;;;;;;1.65;0.60;;;2.80;99.90;;;;;;5092785;28;20119;-76
2023/03/07 07:52:53;;;;;;;1.52;0.63;;;3.00;99.90;;;;;;5094837;28;20032;-76
2023/03/07 07:55:19;;;;;;;2.70;0.50;;;2.60;99.90;;;;;;5094865;28;20101;-76
2023/03/07 07:57:46;;;;;;;8.73;0.68;;;3.00;99.90;;;;;;5108293;28;20051;-76
2023/03/07 08:00:18;;;;;;;2.15;0.82;;;2.60;99.90;;;;;;5095197;28;20044;-76
2023/03/07 08:02:45;;;;;;;1.30;0.50;;;2.60;99.90;;;;;;5075822;28;20412;-75
2023/03/07 08:05:12;;;;;;;10.50;0.95;;;2.70;99.90;;;;;;5058507;28;20131;-76
2023/03/07 08:07:38;;;;;;;3.83;0.45;;;2.70;99.90;;;;;;5072183;28;20127;-75
2023/03/07 08:10:07;;;;;;;0.70;0.30;;;3.20;99.90;;;;;;5058086;28;20090;-76
2023/03/07 08:12:34;;;;;;;1.00;0.40;;;2.80;99.90;;;;;;5042877;28;20374;-75
2023/03/07 08:15:01;;;;;;;2.42;0.40;;;2.80;99.90;;;;;;5060281;28;20046;-75
2023/03/07 08:17:28;;;;;;;3.40;0.98;;;2.80;99.90;;;;;;5075906;28;20049;-75
2023/03/07 08:20:00;;;;;;;1.55;0.60;;;2.80;99.90;;;;;;5074255;28;20097;-76
2023/03/07 08:22:26;;;;;;;3.83;0.77;;;2.80;99.90;;;;;;5066448;28;20036;-76
2023/03/07 08:24:53;;;;;;;1.17;0.88;;;3.20;99.90;;;;;;5051500;28;20085;-76
2023/03/07 08:27:20;;;;;;;4.45;1.35;;;2.90;99.90;;;;;;5069463;28;20041;-75
2023/03/07 08:29:48;;;;;;;0.65;0.43;;;2.90;99.90;;;;;;5077686;28;20082;-76
2023/03/07 08:32:14;;;;;;;2.67;0.28;;;3.00;99.90;;;;;;5084057;28;20079;-76
2023/03/07 08:34:41;;;;;;;0.28;0.28;;;3.00;99.90;;;;;;5045037;28;20064;-76
2023/03/07 08:37:09;;;;;;;3.17;0.60;;;3.60;99.90;;;;;;5066986;28;20519;-76
2023/03/07 08:39:35;;;;;;;3.55;0.50;;;3.10;99.90;;;;;;5084197;28;20044;-75
2023/03/07 08:42:02;;;;;;;1.17;0.57;;;3.70;99.90;;;;;;5076845;28;20063;-75
2023/03/07 08:44:29;;;;;;;1.58;0.63;;;3.20;99.90;;;;;;5093121;28;20565;-76
2023/03/07 08:46:56;;;;;;;1.60;0.73;;;3.30;99.90;;;;;;5093516;28;20051;-77
2023/03/07 08:49:22;;;;;;;2.08;0.63;;;3.80;99.90;;;;;;5074951;28;20032;-75
2023/03/07 08:51:49;;;;;;;3.90;0.60;;;3.40;99.90;;;;;;5092404;28;20048;-76
2023/03/07 08:54:16;;;;;;;8.05;0.90;;;3.30;99.90;;;;;;5073297;28;20489;-75
2023/03/07 08:56:43;;;;;;;2.00;0.32;;;3.30;99.90;;;;;;5068076;28;20045;-75
2023/03/07 08:59:09;;;;;;;4.03;0.75;;;3.20;99.90;;;;;;5073295;28;20051;-75
2023/03/07 09:01:36;;;;;;;0.75;0.63;;;3.10;99.90;;;;;;5089056;28;20052;-75
2023/03/07 09:04:03;;;;;;;1.90;0.50;;;2.70;99.90;;;;;;5090054;28;20461;-75
2023/03/07 09:06:30;;;;;;;2.13;0.43;;;2.40;99.90;;;;;;5090077;28;20040;-76
2023/03/07 09:08:57;;;;;;;1.08;0.30;;;2.20;99.90;;;;;;5056760;28;20042;-76
2023/03/07 09:11:25;;;;;;;2.65;0.40;;;1.90;99.90;;;;;;5089814;28;20041;-76
2023/03/07 09:13:52;;;;;;;2.72;0.40;;;1.70;99.90;;;;;;5090349;28;20033;-75
2023/03/07 09:16:19;;;;;;;0.52;0.40;;;2.20;99.90;;;;;;5073533;28;20041;-75
2023/03/07 09:18:45;;;;;;;0.20;0.20;;;1.80;99.90;;;;;;5073244;28;20040;-75
2023/03/07 09:21:12;;;;;;;0.52;0.40;;;2.10;99.90;;;;;;5089551;28;20397;-75
2023/03/07 09:23:40;;;;;;;3.97;0.80;;;1.70;99.90;;;;;;5057797;28;20040;-76
2023/03/07 09:26:09;;;;;;;14.52;4.25;;;1.70;99.90;;;;;;5073074;28;20047;-76
2023/03/07 09:28:35;;;;;;;1.92;0.63;;;1.80;99.90;;;;;;5089823;28;20038;-76
2023/03/07 09:31:10;;;;;;;4.22;0.75;;;1.90;99.90;;;;;;5073032;28;20043;-75
2023/03/07 09:33:37;;;;;;;1.73;0.60;;;1.90;99.90;;;;;;5089910;28;20471;-75
2023/03/07 09:36:09;;;;;;;1.65;0.40;;;3.00;99.90;;;;;;5089025;28;20051;-77
2023/03/07 09:38:36;;;;;;;4.10;1.15;;;2.10;99.90;;;;;;5093166;28;20060;-75
2023/03/07 09:41:20;;;;;;;1.63;0.60;;;2.50;99.90;;;;;;5092916;28;20044;-75
2023/03/07 09:43:55;;;;;;;6.00;0.63;;;2.30;99.90;;;;;;5088470;28;20047;-75
2023/03/07 09:46:44;;;;;;;3.20;0.93;;;2.50;99.90;;;;;;5109411;28;20044;-75
2023/03/07 09:49:17;;;;;;;8.57;0.98;;;2.60;99.90;;;;;;5088742;28;20119;-75
2023/03/07 09:51:48;;;;;;;6.38;0.93;;;2.70;99.90;;;;;;5104487;28;20036;-75
2023/03/07 09:54:20;;;;;;;4.90;1.40;;;2.70;99.90;;;;;;5096436;28;20052;-76
2023/03/07 09:56:54;;;;;;;3.20;1.00;;;2.90;99.90;;;;;;5077184;28;20044;-76
2023/03/07 09:59:38;;;;;;;2.30;1.20;;;2.80;99.90;;;;;;5088866;28;20507;-76
2023/03/07 10:02:25;;;;;;;10.85;0.88;;;2.90;99.90;;;;;;5075900;28;20556;-75
2023/03/07 10:05:00;;;;;;;2.63;0.70;;;2.90;99.90;;;;;;5092632;28;20040;-75
2023/03/07 10:07:28;;;;;;;2.13;0.70;;;3.00;99.90;;;;;;5074784;28;20428;-75
2023/03/07 10:09:59;;;;;;;12.82;1.05;;;3.00;99.90;;;;;;5088715;28;20517;-76
2023/03/07 10:12:47;;;;;;;3.75;1.05;;;3.60;99.90;;;;;;5093436;28;20035;-76
2023/03/07 10:15:20;;;;;;;2.42;0.60;;;3.00;99.90;;;;;;5091824;28;20093;-76
2023/03/07 10:18:22;;;;;;;5.25;1.00;;;3.10;99.90;;;;;;5077924;28;20047;-75
2023/03/07 10:20:55;;;;;;;5.05;1.10;;;3.10;99.90;;;;;;5048967;28;20045;-75
2023/03/07 10:23:47;;;;;;;1.55;0.70;;;3.10;99.90;;;;;;5103937;28;20536;-76
2023/03/07 10:26:34;;;;;;;2.25;1.05;;;3.10;99.90;;;;;;5089423;28;20051;-76
2023/03/07 10:29:14;;;;;;;4.25;1.45;;;3.20;99.90;;;;;;5088725;28;20048;-76
2023/03/07 10:31:49;;;;;;;2.05;0.45;;;3.20;99.90;;;;;;5090969;28;20058;-75
2023/03/07 10:34:27;;;;;;;4.07;1.00;;;3.20;99.90;;;;;;5092132;28;20046;-76
2023/03/07 10:36:59;;;;;;;10.63;0.70;;;3.20;99.90;;;;;;5079691;28;20323;-75
2023/03/07 10:39:33;;;;;;;1.02;0.50;;;3.20;99.90;;;;;;5088399;28;20051;-76
2023/03/07 10:41:59;;;;;;;6.05;0.82;;;3.30;99.90;;;;;;5077966;28;20128;-76
2023/03/07 10:44:32;;;;;;;4.18;0.98;;;3.30;99.90;;;;;;5060455;28;20864;-75
2023/03/07 10:46:59;;;;;;;1.83;0.55;;;3.40;99.90;;;;;;5094583;28;20531;-75
2023/03/07 10:49:39;;;;;;;4.72;0.80;;;3.30;99.90;;;;;;5056496;28;20040;-75
2023/03/07 10:52:16;;;;;;;7.57;0.93;;;3.40;99.90;;;;;;5089448;28;20040;-75
2023/03/07 10:54:43;;;;;;;6.20;0.73;;;3.50;99.90;;;;;;5072536;28;20079;-75
2023/03/07 10:57:15;;;;;;;4.22;1.10;;;3.60;99.90;;;;;;5076818;28;20040;-75
2023/03/07 10:59:47;;;;;;;0.93;0.60;;;3.60;99.90;;;;;;5091923;28;20044;-75
2023/03/07 11:02:39;;;;;;;3.38;0.85;;;3.60;99.90;;;;;;5075869;28;20362;-75
2023/03/07 11:05:30;;;;;;;3.08;0.65;;;3.70;99.90;;;;;;5091966;28;20553;-75
2023/03/07 11:07:58;;;;;;;1.75;0.90;;;3.70;99.90;;;;;;5094959;28;20121;-76
2023/03/07 11:10:34;;;;;;;2.05;0.57;;;3.70;99.90;;;;;;5071614;28;20090;-76
2023/03/07 11:13:14;;;;;;;7.72;1.10;;;3.80;99.90;;;;;;5091876;28;20035;-76
2023/03/07 11:15:41;;;;;;;3.70;0.80;;;3.80;99.90;;;;;;5091176;28;20093;-75
2023/03/07 11:18:26;;;;;;;6.32;0.75;;;3.90;99.90;;;;;;5090372;28;20044;-75
2023/03/07 11:20:53;;;;;;;1.87;0.80;;;4.00;99.90;;;;;;5075670;28;20041;-75
2023/03/07 11:23:23;;;;;;;2.40;0.80;;;4.00;99.90;;;;;;5072932;28;20047;-77
2023/03/07 11:25:51;;;;;;;5.60;0.88;;;4.00;99.90;;;;;;5091801;28;20473;-75
2023/03/07 11:28:30;;;;;;;2.63;0.85;;;3.90;99.90;;;;;;5083909;28;20058;-75
2023/03/07 11:31:18;;;;;;;2.40;0.70;;;4.00;99.90;;;;;;5095635;28;20040;-75
2023/03/07 11:34:23;;;;;;;6.57;1.27;;;4.00;99.90;;;;;;5094412;28;20159;-75
2023/03/07 11:36:56;;;;;;;3.35;0.60;;;4.00;99.90;;;;;;5095794;28;20044;-75
2023/03/07 11:40:07;;;;;;;2.72;0.60;;;3.90;99.90;;;;;;5094845;28;20044;-77
2023/03/07 11:42:42;;;;;;;2.15;0.65;;;4.00;99.90;;;;;;5049576;28;20040;-75
2023/03/07 11:45:28;;;;;;;3.15;0.63;;;4.00;99.90;;;;;;5095017;28;20101;-75
2023/03/07 11:48:20;;;;;;;2.15;0.65;;;3.90;99.90;;;;;;5107483;28;20048;-76
2023/03/07 11:50:53;;;;;;;6.72;1.02;;;4.00;99.90;;;;;;5082223;28;20043;-75
2023/03/07 11:53:51;;;;;;;4.85;0.88;;;4.10;99.90;;;;;;5092558;28;20044;-75
2023/03/07 11:56:27;;;;;;;5.65;0.60;;;4.20;99.90;;;;;;5074975;28;20040;-76
2023/03/07 11:59:31;;;;;;;1.38;0.60;;;4.30;99.90;;;;;;5094002;28;20890;-75
2023/03/07 12:02:01;;;;;;;2.70;0.70;;;4.50;99.90;;;;;;5109717;28;20093;-75
2023/03/07 12:04:40;;;;;;;5.47;0.98;;;4.70;99.90;;;;;;5074376;28;20090;-76
2023/03/07 12:07:28;;;;;;;14.60;0.85;;;4.80;99.90;;;;;;5093547;28;20467;-75
2023/03/07 12:10:21;;;;;;;5.45;0.80;;;4.80;99.90;;;;;;5088092;28;20041;-75
2023/03/07 12:13:15;;;;;;;5.10;0.93;;;4.60;99.90;;;;;;5086605;28;20044;-76
2023/03/07 12:16:26;;;;;;;2.08;0.63;;;4.50;99.90;;;;;;5093742;28;20036;-75
2023/03/07 12:19:11;;;;;;;3.72;0.82;;;4.20;99.90;;;;;;5094662;28;20076;-76
2023/03/07 12:22:07;;;;;;;3.22;0.73;;;3.70;99.90;;;;;;5090974;28;20826;-76
2023/03/07 12:24:46;;;;;;;3.72;1.15;;;3.40;99.90;;;;;;5080695;28;20028;-76
2023/03/07 12:27:22;;;;;;;3.05;0.98;;;3.20;99.90;;;;;;5081020;28;20489;-76
2023/03/07 12:29:53;;;;;;;2.65;0.73;;;3.00;99.90;;;;;;5090859;28;20063;-76
2023/03/07 12:32:25;;;;;;;1.30;0.60;;;2.90;99.90;;;;;;5080069;28;20045;-76
2023/03/07 12:35:05;;;;;;;1.23;0.70;;;2.80;99.90;;;;;;5092248;28;20045;-76
2023/03/07 12:37:47;;;;;;;3.97;0.70;;;2.80;99.90;;;;;;5110195;28;20036;-76
2023/03/07 12:40:27;;;;;;;7.28;0.80;;;2.90;99.90;;;;;;5084317;28;20119;-76
2023/03/07 12:43:24;;;;;;;2.35;0.95;;;2.90;99.90;;;;;;5088987;28;20508;-76
2023/03/07 12:45:56;;;;;;;;;;;3.00;99.90;;;;;;5063808;28;20109;-75
2023/03/07 12:48:52;;;;;;;3.42;0.73;;;3.30;99.90;;;;;;5100719;28;19915;-76
2023/03/07 12:51:28;;;;;;;2.80;0.47;;;3.10;99.90;;;;;;5093890;28;20127;-75
2023/03/07 12:54:14;;;;;;;7.13;1.60;;;3.60;99.90;;;;;;5093290;28;20087;-76
2023/03/07 12:57:05;;;;;;;4.53;0.90;;;3.30;99.90;;;;;;5074100;28;20117;-76
2023/03/07 12:59:35;;;;;;;5.22;0.57;;;3.30;99.90;;;;;;5073613;28;20051;-76
2023/03/07 13:02:27;;;;;;;4.30;0.85;;;3.30;99.90;;;;;;5072067;28;20037;-75
2023/03/07 13:04:54;;;;;;;5.90;0.80;;;3.40;99.90;;;;;;5095958;28;20461;-76
2023/03/07 13:07:23;;;;;;;2.88;0.73;;;3.40;99.90;;;;;;5076947;28;20043;-76
2023/03/07 13:09:53;;;;;;;2.13;0.80;;;3.60;99.90;;;;;;5080799;28;20045;-76
2023/03/07 13:12:23;;;;;;;4.50;0.73;;;3.60;99.90;;;;;;5077193;28;20041;-76
2023/03/07 13:14:57;;;;;;;3.85;0.80;;;3.80;99.90;;;;;;5074377;28;20040;-75